Time;durP1;ratioP1;P1;durP2;ratioP2;P2;SDS_P1;SDS_P2;PMS_P1;PMS_P2;Temp;Humidity;BMP_temperature;BMP_pressure;BME280_temperature;BME280_humidity;BME280_pressure;Samples;Min_cycle;Max_cycle;Signal;HPM_P1;HPM_P2
2023/08/23 00:00:09;;;;;;;5.50;4.07;;;17.40;99.90;;;;;;5115674;27;20199;-83
2023/08/23 00:02:36;;;;;;;5.60;3.50;;;17.30;99.90;;;;;;5093072;28;20196;-81
2023/08/23 00:05:03;;;;;;;6.80;4.10;;;17.30;99.90;;;;;;5110995;28;20295;-82
2023/08/23 00:07:30;;;;;;;6.97;3.40;;;17.30;99.90;;;;;;5103724;27;20202;-83
2023/08/23 00:09:57;;;;;;;3.90;3.03;;;17.30;99.90;;;;;;5131026;27;20238;-81
2023/08/23 00:12:24;;;;;;;3.90;3.50;;;17.30;99.90;;;;;;5121389;27;20205;-81
2023/08/23 00:14:51;;;;;;;4.53;3.07;;;17.30;99.90;;;;;;5097050;28;20203;-80
2023/08/23 00:17:18;;;;;;;4.83;3.10;;;17.30;99.90;;;;;;5112535;27;20435;-82
2023/08/23 00:19:46;;;;;;;6.43;3.40;;;17.30;99.90;;;;;;5112110;27;20342;-83
2023/08/23 00:22:13;;;;;;;3.30;3.00;;;17.30;99.90;;;;;;5111406;28;20199;-83
2023/08/23 00:24:39;;;;;;;3.77;2.77;;;17.80;99.90;;;;;;5109679;28;20683;-81
2023/08/23 00:27:06;;;;;;;3.67;2.90;;;17.20;99.90;;;;;;5103945;28;20576;-82
2023/08/23 00:29:33;;;;;;;4.63;2.90;;;17.20;99.90;;;;;;5107237;28;20223;-82
2023/08/23 00:32:00;;;;;;;4.37;3.00;;;17.10;99.90;;;;;;5126452;27;20234;-81
2023/08/23 00:34:26;;;;;;;3.50;2.57;;;17.10;99.90;;;;;;5100956;28;20247;-82
2023/08/23 00:36:53;;;;;;;5.37;3.20;;;17.10;99.90;;;;;;5115908;27;20207;-82
2023/08/23 00:39:20;;;;;;;4.47;3.30;;;17.10;99.90;;;;;;5112522;28;20192;-84
2023/08/23 00:41:47;;;;;;;4.67;3.40;;;17.10;99.90;;;;;;5103454;28;20195;-82
2023/08/23 00:44:14;;;;;;;4.47;3.23;;;17.10;99.90;;;;;;5108110;28;20651;-82
2023/08/23 00:46:41;;;;;;;4.40;3.40;;;17.00;99.90;;;;;;5094685;28;20268;-81
2023/08/23 00:49:08;;;;;;;4.40;3.13;;;17.00;99.90;;;;;;5117644;28;20511;-80
2023/08/23 00:51:35;;;;;;;4.20;3.10;;;16.90;99.90;;;;;;5130555;28;20682;-82
2023/08/23 00:54:03;;;;;;;3.57;2.50;;;16.90;99.90;;;;;;5130270;28;20615;-83
2023/08/23 00:56:30;;;;;;;3.73;2.83;;;16.90;99.90;;;;;;5111270;28;20702;-84
2023/08/23 00:58:58;;;;;;;4.80;2.50;;;16.90;99.90;;;;;;5130427;28;20209;-83
2023/08/23 01:01:25;;;;;;;3.27;2.50;;;16.80;99.90;;;;;;5110059;28;20572;-81
2023/08/23 01:03:55;;;;;;;3.27;2.47;;;16.80;99.90;;;;;;5113678;28;20655;-84
2023/08/23 01:06:54;;;;;;;3.90;3.10;;;16.80;99.90;;;;;;5112461;28;20610;-83
2023/08/23 01:09:48;;;;;;;2.83;2.53;;;16.80;99.90;;;;;;5111925;28;20453;-81
2023/08/23 01:12:34;;;;;;;5.83;2.70;;;16.80;99.90;;;;;;5122155;28;20260;-81
2023/08/23 01:15:05;;;;;;;4.57;3.13;;;16.80;99.90;;;;;;5103802;28;20737;-82
2023/08/23 01:17:34;;;;;;;3.93;2.73;;;16.80;99.90;;;;;;5111620;28;20339;-81
2023/08/23 01:20:02;;;;;;;5.20;3.00;;;16.70;99.90;;;;;;5109710;28;20234;-82
2023/08/23 01:22:32;;;;;;;5.17;3.33;;;16.70;99.90;;;;;;5109450;28;20211;-82
2023/08/23 01:24:59;;;;;;;5.07;3.33;;;16.70;99.90;;;;;;5104709;28;20277;-81
2023/08/23 01:27:28;;;;;;;5.17;3.33;;;16.70;99.90;;;;;;5129539;28;20215;-82
2023/08/23 01:29:58;;;;;;;4.30;2.90;;;16.70;99.90;;;;;;5111943;28;20240;-82
2023/08/23 01:32:42;;;;;;;3.80;2.60;;;16.70;99.90;;;;;;5087942;28;20215;-81
2023/08/23 01:35:18;;;;;;;6.13;2.83;;;16.70;99.90;;;;;;5116745;27;20549;-82
2023/08/23 01:37:50;;;;;;;4.30;3.07;;;16.70;99.90;;;;;;5096804;27;20260;-83
2023/08/23 01:40:17;;;;;;;4.47;3.27;;;16.60;99.90;;;;;;5111966;27;20238;-82
2023/08/23 01:42:46;;;;;;;4.43;3.00;;;16.60;99.90;;;;;;5114248;27;20202;-82
2023/08/23 01:45:12;;;;;;;5.33;3.57;;;16.60;99.90;;;;;;5119620;27;20327;-82
2023/08/23 01:47:39;;;;;;;4.67;3.70;;;16.50;99.90;;;;;;5114127;27;20198;-82
2023/08/23 01:50:07;;;;;;;3.30;2.73;;;16.30;99.90;;;;;;5122135;27;20310;-82
2023/08/23 01:52:34;;;;;;;3.83;3.03;;;16.50;99.90;;;;;;5087634;27;20198;-81
2023/08/23 01:55:01;;;;;;;3.90;2.87;;;16.50;99.90;;;;;;5115140;27;20259;-82
2023/08/23 01:57:27;;;;;;;4.20;3.07;;;16.40;99.90;;;;;;5114967;27;20202;-80
2023/08/23 01:59:56;;;;;;;3.37;3.00;;;16.30;99.90;;;;;;5134202;27;20247;-82
2023/08/23 02:02:22;;;;;;;5.73;3.40;;;16.40;99.90;;;;;;5123747;27;20211;-80
2023/08/23 02:04:49;;;;;;;3.63;3.20;;;16.30;99.90;;;;;;5121555;27;20229;-82
2023/08/23 02:07:16;;;;;;;5.03;3.30;;;16.30;99.90;;;;;;5117521;27;20703;-80
2023/08/23 02:09:43;;;;;;;5.80;3.80;;;16.30;99.90;;;;;;5133280;27;20206;-81
2023/08/23 02:12:10;;;;;;;6.23;3.87;;;16.30;99.90;;;;;;5111503;27;20287;-82
2023/08/23 02:14:38;;;;;;;4.50;3.80;;;16.30;99.90;;;;;;5133095;27;20539;-81
2023/08/23 02:17:05;;;;;;;6.80;3.87;;;16.20;99.90;;;;;;5117615;27;20214;-80
2023/08/23 02:19:31;;;;;;;5.67;4.37;;;16.20;99.90;;;;;;5116788;27;20558;-81
2023/08/23 02:21:58;;;;;;;6.87;3.90;;;16.20;99.90;;;;;;5111897;28;20207;-81
2023/08/23 02:24:26;;;;;;;6.40;3.93;;;16.20;99.90;;;;;;5128558;27;20209;-81
2023/08/23 02:26:53;;;;;;;9.20;4.37;;;16.30;99.90;;;;;;5117260;27;20256;-81
2023/08/23 02:29:20;;;;;;;8.77;5.00;;;16.10;99.90;;;;;;5115348;27;20203;-81
2023/08/23 02:31:47;;;;;;;8.33;4.67;;;16.20;99.90;;;;;;5112204;28;20239;-81
2023/08/23 02:34:13;;;;;;;8.43;5.03;;;16.20;99.90;;;;;;5120270;27;20203;-82
2023/08/23 02:36:40;;;;;;;6.00;4.47;;;16.20;99.90;;;;;;5109837;27;20250;-80
2023/08/23 02:39:07;;;;;;;8.03;5.20;;;16.20;99.90;;;;;;5111953;28;20199;-81
2023/08/23 02:41:34;;;;;;;8.17;4.80;;;16.20;99.90;;;;;;5124589;27;20202;-81
2023/08/23 02:44:01;;;;;;;7.27;5.00;;;16.60;99.90;;;;;;5131751;27;20216;-82
2023/08/23 02:46:27;;;;;;;7.37;5.00;;;16.20;99.90;;;;;;5113714;27;20277;-82
2023/08/23 02:48:54;;;;;;;9.07;5.47;;;16.50;99.90;;;;;;5113927;27;20201;-81
2023/08/23 02:51:21;;;;;;;11.93;5.63;;;16.20;99.90;;;;;;5112192;27;20227;-82
2023/08/23 02:53:48;;;;;;;8.57;5.00;;;16.30;99.90;;;;;;5112228;28;20219;-83
2023/08/23 02:56:15;;;;;;;9.47;6.17;;;16.20;99.90;;;;;;5105156;27;20241;-81
2023/08/23 02:58:42;;;;;;;9.03;6.17;;;16.20;99.90;;;;;;5132133;27;20214;-81
2023/08/23 03:01:09;;;;;;;8.70;5.30;;;16.20;99.90;;;;;;5132346;27;20221;-81
2023/08/23 03:03:36;;;;;;;10.50;5.73;;;16.10;99.90;;;;;;5118968;27;20235;-82
2023/08/23 03:06:02;;;;;;;8.10;5.50;;;16.10;99.90;;;;;;5099192;28;20191;-84
2023/08/23 03:08:29;;;;;;;8.10;5.43;;;16.10;99.90;;;;;;5111238;28;20267;-82
2023/08/23 03:11:07;;;;;;;8.57;5.53;;;16.10;99.90;;;;;;5116831;27;20263;-81
2023/08/23 03:13:34;;;;;;;8.83;4.93;;;16.10;99.90;;;;;;5125039;27;20210;-82
2023/08/23 03:16:01;;;;;;;8.27;4.60;;;16.30;99.90;;;;;;5128420;27;20234;-81
2023/08/23 03:18:28;;;;;;;6.23;4.57;;;16.00;99.90;;;;;;5125264;27;20297;-82
2023/08/23 03:20:55;;;;;;;5.00;4.00;;;16.00;99.90;;;;;;5105796;28;20195;-81
2023/08/23 03:23:23;;;;;;;5.57;4.60;;;16.40;99.90;;;;;;5092621;28;20248;-81
2023/08/23 03:25:50;;;;;;;7.13;4.63;;;15.90;99.90;;;;;;5117780;27;20315;-82
2023/08/23 03:28:17;;;;;;;7.03;4.90;;;15.90;99.90;;;;;;5131828;27;20209;-81
2023/08/23 03:30:44;;;;;;;10.47;5.37;;;15.80;99.90;;;;;;5108108;28;20302;-82
2023/08/23 03:33:10;;;;;;;9.53;5.80;;;15.90;99.90;;;;;;5111434;27;20210;-81
2023/08/23 03:35:37;;;;;;;8.43;5.97;;;15.90;99.90;;;;;;5118035;27;20195;-81
2023/08/23 03:38:04;;;;;;;8.67;5.77;;;15.90;99.90;;;;;;5110929;28;20256;-81
2023/08/23 03:40:38;;;;;;;7.53;5.43;;;16.00;99.90;;;;;;5127285;27;20210;-82
2023/08/23 03:43:06;;;;;;;8.43;5.50;;;16.00;99.90;;;;;;5087408;28;20200;-81
2023/08/23 03:45:33;;;;;;;7.53;5.87;;;16.20;99.90;;;;;;5117225;27;20226;-82
2023/08/23 03:48:00;;;;;;;8.37;5.50;;;16.00;99.90;;;;;;5131362;27;20211;-81
2023/08/23 03:50:27;;;;;;;9.90;5.83;;;15.60;99.90;;;;;;5124491;27;20276;-80
2023/08/23 03:52:54;;;;;;;8.53;5.30;;;16.10;99.90;;;;;;5110682;28;20675;-82
2023/08/23 03:55:21;;;;;;;8.03;5.10;;;17.00;99.90;;;;;;5109478;28;20458;-82
2023/08/23 03:57:50;;;;;;;8.37;5.20;;;16.00;99.90;;;;;;5110962;28;20215;-82
2023/08/23 04:00:17;;;;;;;9.87;5.90;;;15.90;99.90;;;;;;5129676;27;20321;-83
2023/08/23 04:02:44;;;;;;;10.73;6.00;;;15.90;99.90;;;;;;5124613;27;20199;-82
2023/08/23 04:05:11;;;;;;;7.93;5.80;;;15.90;99.90;;;;;;5099057;27;20202;-82
2023/08/23 04:07:40;;;;;;;9.40;5.67;;;16.90;99.90;;;;;;5121477;27;20301;-82
2023/08/23 04:10:07;;;;;;;7.40;5.20;;;15.90;99.90;;;;;;5114556;27;20199;-80
2023/08/23 04:12:34;;;;;;;6.93;5.53;;;15.90;99.90;;;;;;5119069;27;20293;-82
2023/08/23 04:15:02;;;;;;;10.17;6.57;;;16.00;99.90;;;;;;5130675;27;20304;-82
2023/08/23 04:17:30;;;;;;;9.50;6.20;;;15.90;99.90;;;;;;5123852;27;20618;-83
2023/08/23 04:19:57;;;;;;;10.60;5.93;;;15.90;99.90;;;;;;5131233;27;20209;-81
2023/08/23 04:22:23;;;;;;;8.63;5.57;;;15.90;99.90;;;;;;5118465;27;20202;-86
2023/08/23 04:24:51;;;;;;;10.17;5.60;;;15.90;99.90;;;;;;5112445;27;20221;-80
2023/08/23 04:27:18;;;;;;;9.73;5.63;;;15.90;99.90;;;;;;5114961;27;20202;-82
2023/08/23 04:29:44;;;;;;;8.20;5.50;;;16.00;99.90;;;;;;5098868;27;20197;-81
2023/08/23 04:32:12;;;;;;;9.50;5.90;;;16.80;99.90;;;;;;5130272;27;20237;-82
2023/08/23 04:34:40;;;;;;;11.50;5.93;;;16.10;99.90;;;;;;5130703;27;20202;-82
2023/08/23 04:37:07;;;;;;;8.07;5.50;;;16.80;99.90;;;;;;5102627;28;20195;-83
2023/08/23 04:39:34;;;;;;;8.17;6.03;;;16.00;99.90;;;;;;5116464;27;20276;-81
2023/08/23 04:42:01;;;;;;;8.13;5.30;;;16.40;99.90;;;;;;5114005;27;20206;-81
2023/08/23 04:44:29;;;;;;;8.10;5.10;;;16.30;99.90;;;;;;5118788;27;20386;-83
2023/08/23 04:46:57;;;;;;;10.93;5.90;;;16.00;99.90;;;;;;5098720;28;20207;-81
2023/08/23 04:49:24;;;;;;;10.13;5.87;;;16.00;99.90;;;;;;5113135;28;20374;-81
2023/08/23 04:51:51;;;;;;;10.17;6.07;;;16.00;99.90;;;;;;5115430;28;20303;-83
2023/08/23 04:54:18;;;;;;;7.93;5.43;;;16.30;99.90;;;;;;5105588;28;20684;-83
2023/08/23 04:56:45;;;;;;;9.67;5.87;;;16.00;99.90;;;;;;5118816;28;20634;-83
2023/08/23 04:59:11;;;;;;;7.40;4.93;;;16.90;99.90;;;;;;5126135;28;20214;-84
2023/08/23 05:01:38;;;;;;;9.90;5.77;;;15.80;99.90;;;;;;5130286;28;20263;-81
2023/08/23 05:04:07;;;;;;;8.93;5.90;;;16.00;99.90;;;;;;5114913;28;20283;-84
2023/08/23 05:06:34;;;;;;;8.53;5.87;;;16.00;99.90;;;;;;5122489;27;20203;-82
2023/08/23 05:09:04;;;;;;;8.30;5.13;;;15.90;99.90;;;;;;5122046;27;20206;-84
2023/08/23 05:11:33;;;;;;;9.67;5.43;;;16.00;99.90;;;;;;5111569;27;20812;-82
2023/08/23 05:14:15;;;;;;;9.17;5.23;;;16.10;99.90;;;;;;5124263;27;20206;-84
2023/08/23 05:16:43;;;;;;;7.23;5.03;;;16.10;99.90;;;;;;5106174;28;20257;-81
2023/08/23 05:19:13;;;;;;;8.57;4.70;;;16.10;99.90;;;;;;5109867;28;20227;-88
2023/08/23 05:21:39;;;;;;;10.07;5.20;;;16.10;99.90;;;;;;5112088;27;20208;-83
2023/08/23 05:24:06;;;;;;;12.53;5.40;;;16.00;99.90;;;;;;5115000;27;20200;-82
2023/08/23 05:26:33;;;;;;;14.00;5.00;;;16.20;99.90;;;;;;5111245;27;20203;-81
2023/08/23 05:29:01;;;;;;;6.27;4.90;;;16.10;99.90;;;;;;5094267;28;20219;-82
2023/08/23 05:31:28;;;;;;;8.93;4.73;;;16.10;99.90;;;;;;5121840;27;20311;-83
2023/08/23 05:33:55;;;;;;;8.93;4.67;;;16.20;99.90;;;;;;5118626;27;20217;-81
2023/08/23 05:36:21;;;;;;;19.87;5.53;;;16.20;99.90;;;;;;5116631;27;20686;-83
2023/08/23 05:38:50;;;;;;;18.33;5.73;;;16.20;99.90;;;;;;5118521;27;20230;-82
2023/08/23 05:41:18;;;;;;;17.10;5.37;;;16.60;99.90;;;;;;5113238;27;20195;-81
2023/08/23 05:43:44;;;;;;;11.37;4.63;;;16.30;99.90;;;;;;5121733;27;20203;-82
2023/08/23 05:46:11;;;;;;;11.07;5.33;;;16.30;99.90;;;;;;5100818;28;20219;-82
2023/08/23 05:48:38;;;;;;;13.23;5.00;;;16.30;99.90;;;;;;5118039;27;20245;-83
2023/08/23 05:51:06;;;;;;;13.87;5.57;;;16.20;99.90;;;;;;5115275;27;20280;-82
2023/08/23 05:53:35;;;;;;;13.07;5.40;;;16.40;99.90;;;;;;5077668;27;20207;-82
2023/08/23 05:56:02;;;;;;;7.10;4.43;;;16.40;99.90;;;;;;5113763;27;20233;-84
2023/08/23 05:58:29;;;;;;;11.80;5.50;;;16.40;99.90;;;;;;5100630;28;20659;-83
2023/08/23 06:00:55;;;;;;;13.13;5.47;;;17.10;99.90;;;;;;5122027;27;20363;-84
2023/08/23 06:03:22;;;;;;;7.90;4.03;;;16.50;99.90;;;;;;5094677;28;20287;-83
2023/08/23 06:05:54;;;;;;;10.70;4.32;;;16.70;99.90;;;;;;5101499;27;20281;-81
2023/08/23 06:08:21;;;;;;;9.65;3.97;;;16.00;99.90;;;;;;5093765;28;20191;-82
2023/08/23 06:10:48;;;;;;;6.43;4.20;;;16.70;99.90;;;;;;5112465;28;20228;-83
2023/08/23 06:13:16;;;;;;;8.68;4.25;;;16.80;99.90;;;;;;5094868;28;20718;-83
2023/08/23 06:15:42;;;;;;;9.70;4.17;;;16.90;99.90;;;;;;5094198;28;20219;-82
2023/08/23 06:18:09;;;;;;;6.87;4.17;;;16.40;99.90;;;;;;5111620;28;20211;-83
2023/08/23 06:20:38;;;;;;;6.80;4.22;;;17.20;99.90;;;;;;5111386;27;20613;-84
2023/08/23 06:23:05;;;;;;;7.28;3.70;;;17.90;99.90;;;;;;5091849;28;20206;-86
2023/08/23 06:25:32;;;;;;;5.75;3.40;;;19.20;99.90;;;;;;5131064;27;20238;-84
2023/08/23 06:28:00;;;;;;;5.57;3.13;;;;;;;;;;5128784;27;20640;-85
2023/08/23 06:30:27;;;;;;;4.22;2.80;;;21.20;99.90;;;;;;5114526;27;20222;-82
2023/08/23 06:32:55;;;;;;;5.63;3.10;;;22.70;99.90;;;;;;5108985;27;20229;-81
2023/08/23 06:35:24;;;;;;;4.00;3.33;;;23.20;99.90;;;;;;5096205;27;20191;-82
2023/08/23 06:37:51;;;;;;;3.78;2.92;;;24.10;99.90;;;;;;5088685;27;20584;-81
2023/08/23 06:40:18;;;;;;;4.45;2.83;;;24.80;99.90;;;;;;5083812;28;20644;-81
2023/08/23 06:42:45;;;;;;;3.10;2.45;;;25.60;99.90;;;;;;5091810;28;20211;-82
2023/08/23 06:45:12;;;;;;;4.43;2.60;;;26.00;99.90;;;;;;5109732;27;20203;-81
2023/08/23 06:47:39;;;;;;;4.95;2.88;;;26.40;99.90;;;;;;5111886;27;20207;-82
2023/08/23 06:50:07;;;;;;;4.65;2.80;;;26.90;99.90;;;;;;5091175;28;20970;-80
2023/08/23 06:52:39;;;;;;;3.95;2.75;;;27.40;99.90;;;;;;5103658;27;20219;-82
2023/08/23 06:55:06;;;;;;;3.40;2.63;;;27.80;99.90;;;;;;5124799;27;20528;-83
2023/08/23 06:57:33;;;;;;;3.60;2.58;;;28.10;99.90;;;;;;5117784;27;20553;-82
2023/08/23 07:00:00;;;;;;;4.45;2.22;;;28.60;99.90;;;;;;5110131;28;20207;-81
2023/08/23 07:02:28;;;;;;;5.40;2.42;;;;;;;;;;5108191;27;20626;-82
2023/08/23 07:04:55;;;;;;;4.13;2.67;;;29.20;99.90;;;;;;5097010;28;20191;-81
2023/08/23 07:07:22;;;;;;;3.95;2.30;;;29.60;99.90;;;;;;5103973;28;20791;-82
2023/08/23 07:09:49;;;;;;;4.80;2.70;;;30.00;99.90;;;;;;5105088;28;20188;-82
2023/08/23 07:12:16;;;;;;;4.55;2.70;;;30.30;99.90;;;;;;5083461;28;20573;-80
2023/08/23 07:14:46;;;;;;;4.82;2.83;;;30.40;99.90;;;;;;5096854;27;20292;-82
2023/08/23 07:17:13;;;;;;;2.85;2.47;;;30.60;99.90;;;;;;5057116;28;20223;-82
2023/08/23 07:19:40;;;;;;;5.20;2.45;;;31.00;99.90;;;;;;5080678;27;20553;-83
2023/08/23 07:22:07;;;;;;;3.03;2.28;;;31.30;99.90;;;;;;5104223;28;20208;-80
2023/08/23 07:24:34;;;;;;;3.78;2.22;;;31.40;99.90;;;;;;5109548;28;20200;-81
2023/08/23 07:27:01;;;;;;;2.85;2.10;;;31.40;99.90;;;;;;5111019;27;20207;-82
2023/08/23 07:29:29;;;;;;;4.10;2.15;;;31.50;99.90;;;;;;5089886;27;20201;-82
2023/08/23 07:31:55;;;;;;;2.92;2.00;;;31.20;99.90;;;;;;5090492;28;20222;-81
2023/08/23 07:34:22;;;;;;;3.22;1.58;;;31.00;99.90;;;;;;5109968;28;20248;-80
2023/08/23 07:36:49;;;;;;;2.85;1.95;;;30.60;99.90;;;;;;5109181;27;20203;-83
2023/08/23 07:39:16;;;;;;;1.50;1.33;;;30.40;99.90;;;;;;5084946;28;20244;-81
2023/08/23 07:41:43;;;;;;;3.70;1.60;;;30.60;99.90;;;;;;5106915;28;20704;-81
2023/08/23 07:44:10;;;;;;;2.25;1.55;;;30.70;99.90;;;;;;5087083;28;20194;-83
2023/08/23 07:46:37;;;;;;;2.95;1.85;;;31.00;99.90;;;;;;5087040;28;20267;-82
2023/08/23 07:49:04;;;;;;;2.53;1.40;;;31.30;99.90;;;;;;5083834;28;20248;-82
2023/08/23 07:51:32;;;;;;;3.25;1.65;;;31.40;99.90;;;;;;5092702;27;20521;-82
2023/08/23 07:53:58;;;;;;;2.50;1.98;;;31.30;99.90;;;;;;5081487;28;20701;-81
2023/08/23 07:56:25;;;;;;;1.88;1.60;;;31.30;99.90;;;;;;5104706;27;20616;-82
2023/08/23 07:58:53;;;;;;;2.05;1.30;;;31.30;99.90;;;;;;5109688;27;20356;-82
2023/08/23 08:01:20;;;;;;;4.82;1.50;;;30.90;99.90;;;;;;5109105;27;20707;-81
2023/08/23 08:03:47;;;;;;;3.60;1.80;;;31.10;99.90;;;;;;5087996;28;20199;-81
2023/08/23 08:06:14;;;;;;;2.05;1.50;;;30.90;99.90;;;;;;5111057;27;20213;-81
2023/08/23 08:08:42;;;;;;;2.05;1.30;;;30.90;99.90;;;;;;5095505;28;20561;-83
2023/08/23 08:11:14;;;;;;;2.17;1.50;;;30.80;99.90;;;;;;5113022;27;20195;-81
2023/08/23 08:13:41;;;;;;;2.38;1.33;;;31.00;99.90;;;;;;5108861;27;20194;-81
2023/08/23 08:16:09;;;;;;;2.08;1.40;;;31.10;99.90;;;;;;5104209;27;20237;-82
2023/08/23 08:18:37;;;;;;;2.85;1.15;;;31.10;99.90;;;;;;5091516;28;20203;-81
2023/08/23 08:21:04;;;;;;;3.92;1.30;;;31.20;99.90;;;;;;5088489;28;20190;-83
2023/08/23 08:23:32;;;;;;;1.60;1.42;;;31.60;99.90;;;;;;5104559;28;20194;-82
2023/08/23 08:25:59;;;;;;;1.88;1.30;;;31.60;99.90;;;;;;5103608;28;20202;-81
2023/08/23 08:28:26;;;;;;;1.33;0.93;;;31.70;99.90;;;;;;5104529;27;20277;-81
2023/08/23 08:30:53;;;;;;;1.70;1.13;;;31.80;99.90;;;;;;5105374;28;20206;-79
2023/08/23 08:33:25;;;;;;;3.78;1.30;;;31.50;99.90;;;;;;5107533;28;20593;-80
2023/08/23 08:35:52;;;;;;;2.33;1.30;;;31.50;99.90;;;;;;5105162;28;20195;-80
2023/08/23 08:38:21;;;;;;;2.58;1.20;;;31.60;99.90;;;;;;5094784;27;20281;-81
2023/08/23 08:40:48;;;;;;;1.98;1.13;;;31.70;99.90;;;;;;5105878;27;20187;-81
2023/08/23 08:43:17;;;;;;;2.22;1.40;;;31.70;99.90;;;;;;5114095;27;20733;-81
2023/08/23 08:45:45;;;;;;;1.58;1.08;;;31.70;99.90;;;;;;5089544;28;20219;-80
2023/08/23 08:48:12;;;;;;;1.55;1.08;;;31.50;99.90;;;;;;5108557;28;20202;-81
2023/08/23 08:50:43;;;;;;;1.30;1.17;;;31.10;99.90;;;;;;5091107;28;20199;-81
2023/08/23 08:53:17;;;;;;;2.33;1.10;;;31.20;99.90;;;;;;5103244;28;21192;-81
2023/08/23 08:55:47;;;;;;;1.60;1.25;;;31.30;99.90;;;;;;5099692;28;20334;-81
2023/08/23 08:58:19;;;;;;;3.25;1.30;;;31.20;99.90;;;;;;5087703;28;20215;-80
2023/08/23 09:00:52;;;;;;;3.65;1.10;;;31.10;99.90;;;;;;5087088;28;20301;-82
2023/08/23 09:03:20;;;;;;;2.78;1.33;;;31.10;99.90;;;;;;5087774;28;20227;-82
2023/08/23 09:05:50;;;;;;;2.85;1.20;;;31.00;99.90;;;;;;5085072;28;20260;-80
2023/08/23 09:08:20;;;;;;;2.90;1.20;;;31.00;99.90;;;;;;5066229;28;20272;-80
2023/08/23 09:10:47;;;;;;;1.30;1.10;;;31.20;99.90;;;;;;5067731;28;20198;-80
2023/08/23 09:13:14;;;;;;;1.25;1.00;;;31.20;99.90;;;;;;5086418;28;20268;-78
2023/08/23 09:15:41;;;;;;;2.35;1.00;;;31.20;99.90;;;;;;5089268;28;20262;-79
2023/08/23 09:18:08;;;;;;;1.38;1.20;;;31.20;99.90;;;;;;5088777;28;20211;-81
2023/08/23 09:20:36;;;;;;;1.50;1.15;;;31.20;99.90;;;;;;5088365;28;20216;-80
2023/08/23 09:23:03;;;;;;;1.88;1.10;;;31.00;99.90;;;;;;5088790;28;20698;-80
2023/08/23 09:25:30;;;;;;;1.23;1.10;;;31.00;99.90;;;;;;5087842;28;20208;-79
2023/08/23 09:27:57;;;;;;;1.60;1.20;;;31.00;99.90;;;;;;5088089;28;20656;-80
2023/08/23 09:30:28;;;;;;;1.83;1.30;;;30.90;99.90;;;;;;5088394;28;20259;-79
2023/08/23 09:32:57;;;;;;;1.77;1.08;;;30.90;99.90;;;;;;5088521;28;20219;-79
2023/08/23 09:35:24;;;;;;;2.50;1.08;;;30.80;99.90;;;;;;5070304;28;20204;-79
2023/08/23 09:37:54;;;;;;;1.90;1.30;;;30.60;99.90;;;;;;5087904;28;20203;-80
2023/08/23 09:40:23;;;;;;;1.60;1.20;;;30.40;99.90;;;;;;5088307;28;20281;-79
2023/08/23 09:42:51;;;;;;;2.47;1.10;;;30.50;99.90;;;;;;5070821;28;20567;-81
2023/08/23 09:45:28;;;;;;;2.03;1.10;;;30.30;99.90;;;;;;5091051;28;20215;-79
2023/08/23 09:47:58;;;;;;;3.45;1.45;;;30.20;99.90;;;;;;5078056;28;20227;-79
2023/08/23 09:50:26;;;;;;;2.30;1.55;;;30.30;99.90;;;;;;5088613;28;20783;-79
2023/08/23 09:53:05;;;;;;;2.90;1.50;;;30.20;99.90;;;;;;5088023;28;20228;-78
2023/08/23 09:55:33;;;;;;;2.13;1.40;;;30.10;99.90;;;;;;5074801;28;20196;-78
2023/08/23 09:58:02;;;;;;;1.77;1.20;;;30.00;99.90;;;;;;5113470;28;20548;-77
2023/08/23 10:00:29;;;;;;;2.85;1.33;;;30.10;99.90;;;;;;5115272;27;20725;-78
2023/08/23 10:03:00;;;;;;;1.52;1.23;;;29.90;99.90;;;;;;5109849;27;20727;-78
2023/08/23 10:05:27;;;;;;;1.55;0.90;;;29.80;99.90;;;;;;5106179;27;20279;-78
2023/08/23 10:07:56;;;;;;;2.38;1.30;;;29.80;99.90;;;;;;5088169;28;20199;-77
2023/08/23 10:10:28;;;;;;;2.22;1.35;;;29.60;99.90;;;;;;5097499;28;20317;-78
2023/08/23 10:13:05;;;;;;;1.10;1.00;;;29.60;99.90;;;;;;5120599;27;20272;-78
2023/08/23 10:15:38;;;;;;;2.03;1.50;;;29.60;99.90;;;;;;5109174;28;20702;-78
2023/08/23 10:18:09;;;;;;;2.08;1.15;;;29.80;99.90;;;;;;5114005;27;20195;-79
2023/08/23 10:20:37;;;;;;;1.48;1.27;;;29.70;99.90;;;;;;5094706;28;20195;-77
2023/08/23 10:23:15;;;;;;;2.33;1.00;;;29.60;99.90;;;;;;5110770;27;20309;-78
2023/08/23 10:25:44;;;;;;;2.10;1.20;;;29.60;99.90;;;;;;5089001;28;20226;-80
2023/08/23 10:28:18;;;;;;;1.95;1.20;;;29.40;99.90;;;;;;5110438;27;20214;-77
2023/08/23 10:30:48;;;;;;;4.40;1.50;;;29.30;99.90;;;;;;5094500;28;20330;-78
2023/08/23 10:33:16;;;;;;;2.15;1.20;;;29.20;99.90;;;;;;5107547;28;20219;-79
2023/08/23 10:35:45;;;;;;;3.30;1.35;;;29.30;99.90;;;;;;5109384;28;20196;-81
2023/08/23 10:38:14;;;;;;;2.28;1.20;;;29.20;99.90;;;;;;5106077;27;20219;-79
2023/08/23 10:40:45;;;;;;;1.65;1.10;;;29.20;99.90;;;;;;5105209;28;20214;-77
2023/08/23 10:43:17;;;;;;;2.10;1.30;;;29.30;99.90;;;;;;5089700;28;20205;-78
2023/08/23 10:46:06;;;;;;;3.67;1.27;;;29.30;99.90;;;;;;5105151;27;20509;-79
2023/08/23 10:48:34;;;;;;;1.15;1.05;;;29.30;99.90;;;;;;5116433;27;20206;-80
2023/08/23 10:51:01;;;;;;;1.42;1.30;;;29.20;99.90;;;;;;5110597;27;20199;-78
2023/08/23 10:53:30;;;;;;;3.10;1.40;;;29.10;99.90;;;;;;5109208;28;20565;-79
2023/08/23 10:56:00;;;;;;;2.67;1.40;;;29.20;99.90;;;;;;5109788;27;20292;-80
2023/08/23 10:58:27;;;;;;;2.03;1.00;;;29.20;99.90;;;;;;5090417;27;20202;-80
2023/08/23 11:00:55;;;;;;;1.50;1.38;;;29.30;99.90;;;;;;5108136;27;20246;-79
2023/08/23 11:03:22;;;;;;;3.10;1.27;;;29.40;99.90;;;;;;5096595;28;20344;-78
2023/08/23 11:05:52;;;;;;;2.75;1.27;;;29.40;99.90;;;;;;5102050;27;20199;-79
2023/08/23 11:08:21;;;;;;;1.38;1.08;;;29.60;99.90;;;;;;5106135;27;20243;-78
2023/08/23 11:10:48;;;;;;;1.88;1.20;;;29.40;99.90;;;;;;5107869;27;20199;-78
2023/08/23 11:13:16;;;;;;;1.65;1.23;;;29.50;99.90;;;;;;5097151;28;20592;-79
2023/08/23 11:15:43;;;;;;;1.95;1.48;;;29.60;99.90;;;;;;5087338;28;20216;-79
2023/08/23 11:18:13;;;;;;;1.48;1.38;;;29.70;99.90;;;;;;5111346;27;20202;-78
2023/08/23 11:20:41;;;;;;;2.97;1.20;;;29.80;99.90;;;;;;5108171;28;20195;-77
2023/08/23 11:23:08;;;;;;;2.85;1.20;;;29.90;99.90;;;;;;5102077;27;20278;-79
2023/08/23 11:25:35;;;;;;;2.75;1.30;;;29.80;99.90;;;;;;5106435;27;20199;-77
2023/08/23 11:28:05;;;;;;;1.73;1.40;;;29.60;99.90;;;;;;5111609;27;20671;-78
2023/08/23 11:30:32;;;;;;;2.08;1.20;;;29.40;99.90;;;;;;5113498;27;20212;-79
2023/08/23 11:32:59;;;;;;;2.03;1.50;;;29.60;99.90;;;;;;5108639;27;20266;-78
2023/08/23 11:35:27;;;;;;;2.40;1.30;;;29.70;99.90;;;;;;5102638;27;20227;-77
2023/08/23 11:37:54;;;;;;;1.73;1.20;;;29.90;99.90;;;;;;5116096;27;20199;-78
2023/08/23 11:40:23;;;;;;;2.55;1.40;;;29.90;99.70;;;;;;5094148;27;20211;-78
2023/08/23 11:42:54;;;;;;;2.28;1.27;;;30.00;99.30;;;;;;5107858;27;20286;-80
2023/08/23 11:45:41;;;;;;;2.53;1.48;;;30.00;99.60;;;;;;5109638;27;20249;-78
2023/08/23 11:48:10;;;;;;;2.83;1.65;;;29.70;99.60;;;;;;5098776;27;20214;-81
2023/08/23 11:50:40;;;;;;;2.45;1.08;;;29.40;99.80;;;;;;5086951;28;20318;-78
2023/08/23 11:53:08;;;;;;;1.25;1.08;;;29.50;99.90;;;;;;5120798;27;20260;-80
2023/08/23 11:55:37;;;;;;;2.83;1.42;;;29.70;99.90;;;;;;5115960;27;20221;-78
2023/08/23 11:58:04;;;;;;;1.35;1.20;;;29.70;99.60;;;;;;5103863;27;20228;-77
2023/08/23 12:00:31;;;;;;;3.63;1.33;;;29.90;99.70;;;;;;5105162;27;20223;-79
2023/08/23 12:02:58;;;;;;;1.27;1.10;;;30.10;99.60;;;;;;5115034;27;20218;-79
2023/08/23 12:05:25;;;;;;;3.20;1.17;;;30.20;99.40;;;;;;5106807;27;20208;-80
2023/08/23 12:07:51;;;;;;;4.05;1.58;;;30.10;99.10;;;;;;5103180;27;20243;-77
2023/08/23 12:10:18;;;;;;;1.02;0.93;;;30.20;99.20;;;;;;5111091;27;20311;-79
2023/08/23 12:12:45;;;;;;;1.83;1.20;;;30.20;99.30;;;;;;5115277;27;20222;-79
2023/08/23 12:15:12;;;;;;;1.90;1.17;;;30.10;98.60;;;;;;5112938;27;20241;-77
2023/08/23 12:17:39;;;;;;;2.03;1.10;;;30.00;98.60;;;;;;5113262;27;20306;-78
2023/08/23 12:20:11;;;;;;;2.03;1.20;;;29.90;98.90;;;;;;5096592;28;20195;-79
2023/08/23 12:22:44;;;;;;;2.00;1.40;;;30.00;99.00;;;;;;5109134;27;20286;-79
2023/08/23 12:25:10;;;;;;;1.20;1.10;;;30.10;99.40;;;;;;5106541;28;20222;-79
2023/08/23 12:27:37;;;;;;;2.28;1.08;;;30.20;98.90;;;;;;5084634;28;20192;-78
2023/08/23 12:30:05;;;;;;;1.95;1.27;;;30.20;99.40;;;;;;5106838;27;20195;-78
2023/08/23 12:32:32;;;;;;;1.42;1.30;;;30.30;99.10;;;;;;5105623;28;20196;-79
2023/08/23 12:34:59;;;;;;;1.80;1.23;;;30.40;99.10;;;;;;5113198;27;20781;-79
2023/08/23 12:37:26;;;;;;;1.52;1.38;;;30.50;99.00;;;;;;5117646;27;20244;-79
2023/08/23 12:39:54;;;;;;;2.17;1.45;;;30.50;99.20;;;;;;5104594;27;20688;-77
2023/08/23 12:42:20;;;;;;;2.53;1.42;;;30.40;98.70;;;;;;5108134;28;20680;-81
2023/08/23 12:44:48;;;;;;;2.45;1.35;;;30.10;98.50;;;;;;5107557;28;20206;-78
2023/08/23 12:47:15;;;;;;;2.13;1.30;;;29.90;98.70;;;;;;5099449;28;20626;-77
2023/08/23 12:49:41;;;;;;;1.58;1.23;;;29.70;99.20;;;;;;5101614;28;20253;-79